Time;durP1;ratioP1;P1;durP2;ratioP2;P2;SDS_P1;SDS_P2;PMS_P1;PMS_P2;Temp;Humidity;BMP_temperature;BMP_pressure;BME280_temperature;BME280_humidity;BME280_pressure;Samples;Min_cycle;Max_cycle;Signal;HPM_P1;HPM_P2
2022/09/01 00:00:29;;;;;;;1.60;1.50;;;14.80;99.90;;;-141.84;59.10;20433.75;5052642;28;20201;-61
2022/09/01 00:02:57;;;;;;;1.35;1.25;;;14.90;99.90;;;-141.84;58.97;20468.31;5052513;28;20205;-61
2022/09/01 00:05:27;;;;;;;2.55;1.30;;;15.00;99.90;;;-141.84;58.93;20476.44;5051776;28;20684;-62
2022/09/01 00:07:55;;;;;;;1.50;1.40;;;15.00;99.90;;;-141.84;58.51;20478.47;5052134;28;20221;-59
2022/09/01 00:10:23;;;;;;;1.52;1.25;;;15.10;99.90;;;-141.84;58.81;20470.34;5051892;28;20257;-60
2022/09/01 00:12:52;;;;;;;2.90;1.52;;;15.20;99.90;;;-141.84;58.21;20543.53;5051866;28;20225;-61
2022/09/01 00:15:20;;;;;;;1.67;1.30;;;15.20;99.90;;;-141.84;58.73;20484.56;5052316;28;20200;-59
2022/09/01 00:17:48;;;;;;;2.65;1.50;;;15.30;99.90;;;-141.84;58.75;20508.97;5052022;28;20312;-60
2022/09/01 00:20:17;;;;;;;1.75;1.35;;;15.30;99.90;;;-141.84;58.21;20539.47;5051733;28;20239;-61
2022/09/01 00:22:49;;;;;;;1.42;1.33;;;15.30;99.90;;;-141.84;58.16;20484.56;5051818;28;20304;-60
2022/09/01 00:25:19;;;;;;;1.60;1.42;;;15.30;99.90;;;-141.84;58.20;20515.06;5051597;28;20316;-60
2022/09/01 00:27:48;;;;;;;1.42;1.17;;;15.30;99.90;;;-141.84;57.58;20551.66;5051679;28;20197;-60
2022/09/01 00:30:17;;;;;;;1.70;1.40;;;15.40;99.90;;;-141.84;57.83;20498.81;5052232;28;20209;-60
2022/09/01 00:32:45;;;;;;;1.83;1.27;;;15.50;99.90;;;-141.84;58.14;20500.84;5051488;28;20225;-61
2022/09/01 00:35:15;;;;;;;3.20;1.42;;;15.40;99.90;;;-141.84;58.58;20533.34;5051577;28;20934;-60
2022/09/01 00:37:43;;;;;;;1.73;1.30;;;15.40;99.90;;;-141.84;58.90;20490.66;5051798;28;20255;-59
2022/09/01 00:40:16;;;;;;;1.50;1.40;;;15.40;99.90;;;-141.84;58.63;20478.47;5051517;28;20275;-60
2022/09/01 00:42:45;;;;;;;1.55;1.40;;;15.30;99.90;;;-141.84;59.29;20466.28;5051508;28;20717;-60
2022/09/01 00:45:13;;;;;;;1.77;1.20;;;15.30;99.90;;;-141.84;59.08;20472.38;5052100;28;20293;-61
2022/09/01 00:47:42;;;;;;;2.75;1.30;;;15.20;99.90;;;-141.84;59.52;20435.78;5051632;28;20229;-60
2022/09/01 00:50:14;;;;;;;3.28;1.45;;;15.20;99.90;;;-141.84;60.28;20452.06;5051553;28;20225;-62
2022/09/01 00:52:50;;;;;;;1.53;1.20;;;15.10;99.90;;;-141.84;60.57;20443.91;5051645;28;20229;-60
2022/09/01 00:55:25;;;;;;;2.17;1.30;;;15.00;99.90;;;-141.84;60.51;20435.78;5051531;28;20228;-61
2022/09/01 00:57:53;;;;;;;1.65;1.30;;;15.00;99.90;;;-141.84;60.77;20435.78;5051578;28;20221;-60
2022/09/01 01:00:26;;;;;;;2.10;1.50;;;15.00;99.90;;;-141.84;60.14;20407.34;5052424;28;20233;-60
2022/09/01 01:02:55;;;;;;;3.58;1.30;;;14.90;99.90;;;-141.84;60.59;20409.38;5055220;28;20233;-60
2022/09/01 01:05:31;;;;;;;1.47;1.37;;;14.90;99.90;;;-141.84;61.36;20370.75;5055102;28;20244;-61
2022/09/01 01:08:03;;;;;;;1.60;1.50;;;14.80;99.90;;;-141.84;62.24;20362.63;5055228;28;20923;-60
2022/09/01 01:10:37;;;;;;;4.13;1.80;;;14.70;99.90;;;-141.84;61.82;20397.16;5055159;28;20323;-59
2022/09/01 01:13:14;;;;;;;2.75;1.50;;;14.60;99.90;;;-141.84;61.21;20376.84;5055247;28;20665;-59
2022/09/01 01:15:43;;;;;;;2.70;1.43;;;14.70;99.90;;;-141.84;61.99;20340.25;5055199;28;20185;-59
2022/09/01 01:18:12;;;;;;;2.57;1.37;;;14.60;99.90;;;-141.84;61.78;20344.31;5055832;28;20197;-60
2022/09/01 01:23:37;;;;;;;1.60;1.50;;;14.60;99.90;;;-141.84;61.93;20344.31;5055046;28;20595;-61
2022/09/01 01:26:10;;;;;;;3.10;1.60;;;14.50;99.90;;;-141.84;62.93;20291.47;5054751;28;20225;-60
2022/09/01 01:28:43;;;;;;;2.10;1.70;;;14.50;99.90;;;-141.84;62.67;20297.56;5054949;28;20326;-62
2022/09/01 01:31:15;;;;;;;2.30;1.40;;;14.40;99.90;;;-141.84;62.96;20293.50;5054752;28;20225;-60
2022/09/01 01:33:46;;;;;;;1.43;1.33;;;14.40;99.90;;;-141.84;63.53;20281.31;5054942;28;20201;-60
2022/09/01 01:36:20;;;;;;;2.00;1.63;;;14.30;99.90;;;-141.84;63.37;20303.66;5055216;28;20185;-60
2022/09/01 01:38:49;;;;;;;2.53;1.60;;;14.30;99.90;;;-141.84;63.21;20287.41;5054739;28;20229;-62
2022/09/01 01:41:20;;;;;;;1.90;1.50;;;14.20;99.90;;;-141.84;63.86;20275.22;5054398;28;20696;-60
2022/09/01 01:43:49;;;;;;;2.07;1.60;;;14.20;99.90;;;-141.84;64.01;20263.00;5054557;28;20235;-60
2022/09/01 01:46:18;;;;;;;2.30;1.40;;;14.20;99.90;;;-141.84;63.65;20293.50;5054222;28;20701;-61
2022/09/01 01:48:51;;;;;;;1.80;1.70;;;14.20;99.90;;;-141.84;64.29;20236.59;5054846;28;20252;-61
2022/09/01 01:51:23;;;;;;;1.67;1.50;;;14.20;99.90;;;-141.84;64.57;20240.66;5055032;28;20201;-60
2022/09/01 01:53:52;;;;;;;1.87;1.67;;;14.10;99.90;;;-141.84;64.72;20248.78;5054380;28;20225;-62
2022/09/01 01:56:24;;;;;;;2.30;1.40;;;14.10;99.90;;;-141.84;64.27;20291.47;5054218;28;20810;-61
2022/09/01 01:58:53;;;;;;;2.47;1.60;;;14.00;99.90;;;-141.84;64.67;20252.84;5053339;28;20252;-59
2022/09/01 02:01:23;;;;;;;2.93;1.77;;;14.00;99.90;;;-141.84;64.34;20252.84;5053418;28;20217;-61
2022/09/01 02:03:53;;;;;;;1.67;1.57;;;14.00;99.90;;;-141.84;64.66;20248.78;5053948;28;20312;-60
2022/09/01 02:06:24;;;;;;;4.73;1.57;;;14.00;99.90;;;-141.84;64.28;20242.69;5053607;28;20672;-61
2022/09/01 02:08:55;;;;;;;2.73;1.60;;;14.10;99.90;;;-141.84;64.64;20220.34;5053372;28;20304;-61
2022/09/01 02:11:25;;;;;;;4.95;1.75;;;14.00;99.90;;;-141.84;65.05;20220.34;5052996;28;20231;-61
2022/09/01 02:13:55;;;;;;;1.50;1.40;;;13.90;99.90;;;-141.84;65.03;20236.59;5052987;28;20260;-60
2022/09/01 02:16:24;;;;;;;1.70;1.60;;;13.90;99.90;;;-141.84;65.43;20212.19;5053088;28;20247;-60
2022/09/01 02:18:53;;;;;;;3.70;1.70;;;13.90;99.90;;;-141.84;65.28;20204.06;5053513;28;20213;-61
2022/09/01 02:21:25;;;;;;;3.00;1.80;;;13.80;99.90;;;-141.84;65.87;20224.41;5053546;28;20201;-60
2022/09/01 02:23:59;;;;;;;2.10;1.60;;;13.80;99.90;;;-141.84;66.09;20171.56;5052993;28;20229;-60
2022/09/01 02:26:32;;;;;;;4.17;1.77;;;13.70;99.90;;;-141.84;66.02;20159.34;5052961;28;20243;-61
2022/09/01 02:29:03;;;;;;;1.80;1.70;;;13.70;99.90;;;-141.84;65.86;20163.41;5052793;28;20344;-60
2022/09/01 02:31:34;;;;;;;1.63;1.53;;;13.70;99.90;;;-141.84;65.91;20155.28;5052798;28;20312;-60
2022/09/01 02:34:03;;;;;;;1.57;1.23;;;13.70;99.90;;;-141.84;66.46;20165.44;5052783;28;20233;-60
2022/09/01 02:36:33;;;;;;;2.10;1.70;;;13.70;99.90;;;-141.84;66.00;20139.03;5052926;28;20285;-60
2022/09/01 02:39:02;;;;;;;2.00;1.60;;;13.70;99.90;;;-141.84;66.47;20149.19;5053789;28;20225;-62
2022/09/01 02:41:33;;;;;;;3.57;1.80;;;13.70;99.90;;;-141.84;66.77;20108.53;5052505;28;20237;-61
2022/09/01 02:44:02;;;;;;;1.90;1.70;;;13.60;99.90;;;-141.84;67.05;20147.16;5052714;28;20225;-60
2022/09/01 02:46:31;;;;;;;2.17;1.73;;;13.60;99.90;;;-141.84;67.54;20114.63;5052425;28;20229;-61
2022/09/01 02:49:00;;;;;;;2.60;1.80;;;13.50;99.90;;;-141.84;67.10;20130.91;5052890;28;20244;-61
2022/09/01 02:51:28;;;;;;;6.60;1.77;;;13.50;99.90;;;-141.84;66.98;20100.41;5053020;28;20300;-60
2022/09/01 02:53:59;;;;;;;2.00;1.80;;;13.50;99.90;;;-141.84;67.60;20106.50;5052788;28;20248;-60
2022/09/01 02:56:27;;;;;;;1.70;1.60;;;13.50;99.90;;;-141.84;67.12;20090.25;5052354;28;20224;-61
2022/09/01 02:59:00;;;;;;;1.90;1.70;;;13.40;99.90;;;-141.84;67.73;20098.38;5052027;28;20730;-61
2022/09/01 03:01:32;;;;;;;7.60;2.10;;;13.40;99.90;;;-141.84;67.99;20088.22;5052156;28;20308;-60
2022/09/01 03:04:04;;;;;;;1.93;1.73;;;13.40;99.90;;;-141.84;68.54;20041.47;5052497;28;20225;-59
2022/09/01 03:06:35;;;;;;;3.57;2.03;;;13.30;99.90;;;-141.84;68.45;20086.19;5052421;28;20189;-61
2022/09/01 03:09:07;;;;;;;2.80;1.70;;;13.30;99.90;;;-141.84;68.62;20041.47;5052846;28;20268;-60
2022/09/01 03:11:41;;;;;;;2.60;1.90;;;13.30;99.90;;;-141.84;68.82;20080.09;5051825;28;20708;-61
2022/09/01 03:14:12;;;;;;;2.03;1.63;;;13.20;99.90;;;-141.84;69.03;20031.31;5051875;28;20233;-60
2022/09/01 03:16:40;;;;;;;2.60;1.80;;;13.20;99.90;;;-141.84;69.22;20067.88;5051785;28;20225;-60
2022/09/01 03:19:10;;;;;;;4.10;1.97;;;13.10;99.90;;;-141.84;69.41;20076.03;5052254;28;20335;-61
2022/09/01 03:21:42;;;;;;;3.77;1.80;;;13.10;99.90;;;-141.84;69.87;20019.13;5052403;28;20715;-60
2022/09/01 03:24:13;;;;;;;3.27;1.90;;;13.10;99.90;;;-141.84;69.69;20004.88;5051688;28;20209;-60
2022/09/01 03:26:44;;;;;;;3.47;1.83;;;13.00;99.90;;;-141.84;69.76;20043.50;5051653;28;20228;-61
2022/09/01 03:29:18;;;;;;;2.87;1.80;;;13.00;99.90;;;-141.84;69.76;20002.84;5051855;28;20228;-60
2022/09/01 03:31:47;;;;;;;2.03;1.80;;;13.00;99.90;;;-141.84;69.29;19994.72;5051637;28;20700;-60
2022/09/01 03:34:19;;;;;;;1.63;1.50;;;13.00;99.90;;;-141.84;69.66;20013.00;5051429;28;20702;-61
2022/09/01 03:36:49;;;;;;;3.07;1.90;;;13.00;99.90;;;-141.84;69.69;19996.75;5051593;28;20663;-61
2022/09/01 03:39:18;;;;;;;2.60;1.90;;;13.00;99.90;;;-141.84;70.23;19986.59;5052135;28;20239;-60
2022/09/01 03:41:47;;;;;;;2.10;1.90;;;12.90;99.90;;;-141.84;69.97;20021.16;5051236;28;20712;-60
2022/09/01 03:44:16;;;;;;;3.87;2.10;;;12.90;99.90;;;-141.84;70.43;19952.03;5051290;28;20225;-60
2022/09/01 03:46:45;;;;;;;2.03;1.80;;;12.90;99.90;;;-141.84;70.80;19943.91;5051307;28;20232;-60
2022/09/01 03:49:14;;;;;;;2.43;1.90;;;12.90;99.90;;;-141.84;70.25;19976.44;5051382;28;20327;-61
2022/09/01 03:51:43;;;;;;;3.83;2.00;;;12.90;99.90;;;-141.84;70.55;19964.25;5051664;28;20259;-60
2022/09/01 03:54:13;;;;;;;1.87;1.77;;;12.80;99.90;;;-141.84;70.78;19956.09;5051550;28;20317;-59
2022/09/01 03:56:42;;;;;;;3.83;1.90;;;12.80;99.90;;;-141.84;71.08;19950.00;5051174;28;20248;-59
2022/09/01 03:59:15;;;;;;;1.83;1.73;;;12.80;99.90;;;-141.84;70.16;19970.34;5051294;28;20324;-60
2022/09/01 04:01:46;;;;;;;3.17;1.90;;;12.80;99.90;;;-141.84;70.49;19935.78;5051224;28;20743;-60
2022/09/01 04:04:15;;;;;;;4.60;2.10;;;12.80;99.90;;;-141.84;70.64;19941.88;5051017;28;20256;-61
2022/09/01 04:06:45;;;;;;;2.30;2.10;;;12.80;99.90;;;-141.84;70.78;19939.84;5051156;28;20669;-61
2022/09/01 04:09:14;;;;;;;2.63;2.00;;;12.80;99.90;;;-141.84;71.08;19931.72;5051471;28;20698;-60
2022/09/01 04:11:45;;;;;;;3.00;2.00;;;12.80;99.90;;;-141.84;71.06;19923.59;5051054;28;20221;-62
2022/09/01 04:14:14;;;;;;;3.07;2.20;;;12.80;99.90;;;-141.84;71.01;19927.66;5050827;28;20237;-60
2022/09/01 04:19:37;;;;;;;2.20;2.00;;;12.70;99.90;;;-141.84;71.51;19919.53;5051035;28;20221;-59
2022/09/01 04:22:12;;;;;;;3.27;2.07;;;12.70;99.90;;;-141.84;71.57;19929.69;5050805;28;20307;-61
2022/09/01 04:24:44;;;;;;;2.70;2.37;;;12.70;99.90;;;-141.84;71.19;19925.63;5051042;28;20215;-60
2022/09/01 04:27:16;;;;;;;2.43;2.23;;;12.70;99.90;;;-141.84;71.79;19905.28;5051467;28;20185;-60
2022/09/01 04:29:45;;;;;;;3.67;2.20;;;12.70;99.90;;;-141.84;71.28;19915.47;5050879;28;20233;-61
2022/09/01 04:32:15;;;;;;;2.73;1.80;;;12.70;99.90;;;-141.84;71.22;19899.19;5050829;28;20225;-59
2022/09/01 04:34:43;;;;;;;2.23;2.03;;;12.70;99.90;;;-141.84;70.60;19943.91;5050848;28;20714;-59
2022/09/01 04:37:16;;;;;;;2.13;1.93;;;12.80;99.90;;;-141.84;70.70;19917.50;5054785;28;20478;-60
2022/09/01 04:39:51;;;;;;;4.37;2.00;;;12.80;99.90;;;-141.84;70.83;19899.19;5055152;28;20185;-59
2022/09/01 04:42:27;;;;;;;4.37;2.23;;;12.80;99.90;;;-141.84;70.23;19956.09;5055527;28;20193;-60
2022/09/01 04:44:58;;;;;;;3.20;2.30;;;12.90;99.90;;;-141.84;70.61;19884.97;5054528;28;20221;-61
2022/09/01 04:47:30;;;;;;;2.17;1.97;;;12.90;99.90;;;-141.84;70.38;19947.97;5054563;28;20252;-60
2022/09/01 04:50:12;;;;;;;2.53;1.90;;;12.90;99.90;;;-141.84;70.11;19919.53;5054697;28;20307;-60
2022/09/01 04:52:44;;;;;;;2.70;2.03;;;12.90;99.90;;;-141.84;70.72;19933.75;5054792;28;20366;-62
2022/09/01 04:55:17;;;;;;;3.77;2.10;;;13.00;99.90;;;-141.84;70.62;19911.41;5054362;28;20731;-60
2022/09/01 04:57:48;;;;;;;3.20;2.10;;;12.90;99.90;;;-141.84;70.62;19884.97;5054573;28;20324;-59
2022/09/01 05:00:23;;;;;;;3.50;2.13;;;13.00;99.90;;;-141.84;70.10;19937.81;5055123;28;20201;-61
2022/09/01 05:03:02;;;;;;;2.97;2.30;;;13.00;99.90;;;-141.84;70.32;19919.53;5054355;28;20230;-59
2022/09/01 05:05:41;;;;;;;2.70;2.37;;;13.10;99.90;;;-141.84;69.65;19947.97;5054483;28;20233;-60
2022/09/01 05:08:13;;;;;;;3.93;2.00;;;13.10;99.90;;;-141.84;70.08;19919.53;5054225;28;20233;-59
2022/09/01 05:10:55;;;;;;;2.07;1.90;;;13.10;99.90;;;-141.84;69.94;19913.44;5054264;28;20252;-60
2022/09/01 05:13:26;;;;;;;2.20;2.00;;;13.20;99.90;;;-141.84;69.48;19972.38;5053934;28;20247;-60
2022/09/01 05:16:02;;;;;;;2.20;2.00;;;13.30;99.90;;;-141.84;68.13;19968.31;5054197;28;20312;-59
2022/09/01 05:18:32;;;;;;;3.03;1.90;;;13.40;99.90;;;-141.84;68.82;19978.47;5054193;28;20258;-59
2022/09/01 05:21:09;;;;;;;2.63;2.10;;;13.40;99.90;;;-141.84;69.47;19945.94;5054691;28;20292;-58
2022/09/01 05:23:39;;;;;;;3.17;1.90;;;13.40;99.90;;;-141.84;69.08;19984.56;5053677;28;20759;-60
2022/09/01 05:26:15;;;;;;;2.00;1.90;;;13.50;99.90;;;-141.84;68.52;19984.56;5054197;28;20606;-60
2022/09/01 05:28:44;;;;;;;2.80;2.00;;;13.50;99.90;;;-141.84;68.72;19962.19;5053931;28;20763;-60
2022/09/01 05:31:12;;;;;;;2.90;2.17;;;13.50;99.90;;;-141.84;68.23;20021.16;5053844;28;20302;-59
2022/09/01 05:33:44;;;;;;;3.63;2.13;;;13.60;99.90;;;-141.84;68.39;19968.31;5054087;28;20304;-60
2022/09/01 05:36:16;;;;;;;4.50;2.27;;;13.60;99.90;;;-141.84;68.15;19982.53;5054096;28;20188;-60
2022/09/01 05:38:46;;;;;;;2.50;2.10;;;13.70;99.90;;;-141.84;68.03;20000.81;5053708;28;20225;-60
2022/09/01 05:41:19;;;;;;;2.33;1.90;;;13.70;99.90;;;-141.84;68.43;19980.50;5053642;28;20749;-60
2022/09/01 05:43:51;;;;;;;2.37;1.70;;;13.80;99.90;;;-141.84;68.28;19980.50;5053504;28;20229;-59
2022/09/01 05:46:28;;;;;;;4.10;2.30;;;13.80;99.90;;;-141.84;67.69;20035.38;5053032;28;20304;-60
2022/09/01 05:48:58;;;;;;;4.40;2.10;;;14.00;99.90;;;-141.84;66.75;20037.41;5054340;28;20226;-60
2022/09/01 05:51:33;;;;;;;3.00;2.20;;;14.10;99.90;;;-141.84;66.22;20074.00;5054166;28;20224;-60
2022/09/01 05:54:13;;;;;;;2.60;2.10;;;14.20;99.90;;;-141.84;66.51;20074.00;5052265;28;20217;-60
2022/09/01 05:56:43;;;;;;;4.03;2.40;;;14.50;99.90;;;-141.84;65.53;20114.63;5053420;28;20229;-60
2022/09/01 05:59:13;;;;;;;2.07;1.87;;;14.40;99.90;;;-141.84;65.45;20132.94;5053304;28;20324;-60
2022/09/01 06:01:51;;;;;;;3.00;1.83;;;14.60;99.90;;;-141.84;64.79;20171.56;5053517;28;20252;-59
2022/09/01 06:04:24;;;;;;;2.67;1.77;;;14.70;99.90;;;-141.84;62.73;20240.66;5053424;28;20314;-59
2022/09/01 06:06:55;;;;;;;2.13;1.63;;;15.00;99.90;;;-141.84;62.15;20269.13;5053385;28;20236;-60
2022/09/01 06:09:38;;;;;;;2.17;1.88;;;15.10;99.90;;;-141.84;61.50;20352.44;5053412;28;20185;-60
2022/09/01 06:12:07;;;;;;;1.67;1.58;;;15.40;99.90;;;-141.84;61.67;20334.16;5053907;28;20276;-61
2022/09/01 06:14:36;;;;;;;5.38;2.35;;;15.50;99.90;;;-141.84;60.94;20382.94;5052968;28;20275;-60
2022/09/01 06:17:05;;;;;;;1.73;1.60;;;15.70;99.90;;;-141.84;60.60;20397.16;5053034;28;20308;-60
2022/09/01 06:19:34;;;;;;;2.92;1.90;;;15.80;99.90;;;-141.84;59.98;20456.13;5053355;28;20221;-60
2022/09/01 06:22:04;;;;;;;2.88;1.83;;;16.00;99.90;;;-141.84;59.79;20425.63;5053028;28;20339;-59
2022/09/01 06:24:35;;;;;;;1.98;1.80;;;16.00;99.90;;;-141.84;59.04;20443.91;5053321;28;20221;-60
2022/09/01 06:27:08;;;;;;;3.95;1.85;;;16.10;99.90;;;-141.84;58.48;20527.25;5053432;28;20204;-60
2022/09/01 06:29:38;;;;;;;3.90;1.52;;;16.30;99.90;;;-141.84;58.66;20515.06;5052917;28;20312;-62
2022/09/01 06:32:09;;;;;;;7.55;1.92;;;16.40;99.90;;;-141.84;57.91;20555.72;5052815;28;20249;-60
2022/09/01 06:34:43;;;;;;;2.03;1.42;;;16.50;99.90;;;-141.84;58.21;20567.91;5052949;28;20251;-59
2022/09/01 06:37:12;;;;;;;2.63;1.60;;;16.60;99.90;;;-141.84;57.49;20606.53;5052571;28;20850;-59
2022/09/01 06:39:40;;;;;;;2.95;1.42;;;16.80;99.90;;;-141.84;57.16;20689.88;5053025;28;20288;-60
2022/09/01 06:42:12;;;;;;;2.08;1.63;;;17.00;99.90;;;-141.84;57.17;20657.34;5053339;28;20202;-60
2022/09/01 06:44:40;;;;;;;2.35;1.90;;;17.10;99.90;;;-141.84;57.08;20712.25;5052583;28;20336;-60
2022/09/01 06:47:09;;;;;;;2.47;1.60;;;17.30;99.90;;;-141.84;55.59;20775.25;5052388;28;20605;-61
2022/09/01 06:49:39;;;;;;;4.15;1.80;;;17.60;99.90;;;-141.84;55.30;20769.16;5052687;28;20256;-59
2022/09/01 06:52:08;;;;;;;1.55;1.40;;;17.80;99.90;;;-141.84;54.12;20838.28;5052919;28;20308;-60
2022/09/01 06:54:38;;;;;;;2.78;1.50;;;18.00;99.90;;;-141.84;52.29;20954.16;5052466;28;20212;-60
2022/09/01 06:57:06;;;;;;;3.75;1.70;;;18.30;99.90;;;-141.84;52.52;20929.75;5053174;28;20205;-61
2022/09/01 06:59:55;;;;;;;2.97;1.52;;;18.30;99.90;;;-141.84;52.66;20919.59;5052015;28;20221;-60
2022/09/01 07:02:23;;;;;;;3.35;1.60;;;18.30;99.90;;;-141.84;52.25;20966.34;5052206;28;20225;-59
2022/09/01 07:04:56;;;;;;;4.22;1.80;;;18.40;99.90;;;-141.84;51.83;20994.81;5051867;28;20474;-59
2022/09/01 07:07:26;;;;;;;2.47;1.65;;;18.50;99.90;;;-141.84;52.41;20992.78;5051770;28;20221;-60
2022/09/01 07:10:14;;;;;;;2.40;1.52;;;18.50;99.90;;;-141.84;51.61;21053.78;5051913;28;20225;-60
2022/09/01 07:12:49;;;;;;;1.63;1.35;;;18.70;99.90;;;-141.84;51.30;21078.16;5051531;28;20189;-60
2022/09/01 07:15:34;;;;;;;1.85;1.60;;;18.90;99.90;;;-141.84;51.73;21019.22;5052471;28;20189;-63
2022/09/01 07:18:26;;;;;;;5.22;1.60;;;18.70;99.90;;;-141.84;51.95;20992.78;5052727;28;20555;-59
2022/09/01 07:20:56;;;;;;;2.75;1.75;;;18.60;99.90;;;-141.84;51.82;20988.72;5052793;28;20216;-59
2022/09/01 07:23:44;;;;;;;1.70;1.40;;;18.60;99.90;;;-141.84;52.56;20933.81;5052506;28;20240;-60
2022/09/01 07:26:34;;;;;;;1.70;1.60;;;18.40;99.90;;;-141.84;54.01;20885.03;5052436;28;20229;-59
2022/09/01 07:29:06;;;;;;;1.90;1.45;;;18.20;99.90;;;-141.84;54.69;20828.13;5052555;28;20316;-60
2022/09/01 07:31:39;;;;;;;2.10;1.48;;;18.10;99.90;;;-141.84;54.60;20811.84;5052012;28;20771;-61
2022/09/01 07:34:27;;;;;;;3.20;1.70;;;18.00;99.90;;;-141.84;55.29;20759.00;5052221;28;20237;-60
2022/09/01 07:37:17;;;;;;;5.05;1.45;;;17.70;99.90;;;-141.84;55.83;20761.03;5052429;28;20221;-59
2022/09/01 07:40:10;;;;;;;2.25;1.65;;;17.60;99.90;;;-141.84;56.18;20746.81;5052426;28;20221;-61
2022/09/01 07:42:59;;;;;;;2.15;1.70;;;17.40;99.90;;;-141.84;56.30;20712.25;5051922;28;20719;-59
2022/09/01 07:45:30;;;;;;;2.22;1.70;;;17.40;99.90;;;-141.84;56.26;20708.19;5053301;28;20209;-61
2022/09/01 07:48:05;;;;;;;2.75;1.42;;;17.20;99.90;;;-141.84;56.71;20681.75;5052457;28;20293;-60
2022/09/01 07:50:36;;;;;;;2.97;1.40;;;17.10;99.90;;;-141.84;56.48;20679.72;5052203;28;20714;-59
2022/09/01 07:53:30;;;;;;;1.92;1.60;;;17.10;99.90;;;-141.84;56.66;20732.56;5052237;28;20255;-60
2022/09/01 07:56:01;;;;;;;2.80;1.80;;;17.20;99.90;;;-141.84;55.70;20781.38;5052354;28;20271;-59
2022/09/01 07:58:30;;;;;;;1.73;1.60;;;17.30;99.90;;;-141.84;55.85;20740.69;5051858;28;20784;-59
2022/09/01 08:01:01;;;;;;;1.77;1.67;;;17.20;99.90;;;-141.84;55.68;20785.44;5051917;28;20324;-60
2022/09/01 08:03:30;;;;;;;3.40;1.70;;;17.40;99.90;;;-141.84;55.48;20769.16;5053024;28;20292;-60
2022/09/01 08:06:05;;;;;;;3.22;1.50;;;17.50;99.90;;;-141.84;54.76;20809.81;5053022;28;20235;-60
2022/09/01 08:08:39;;;;;;;2.78;1.90;;;17.70;99.90;;;-141.84;54.33;20822.03;5052630;28;20225;-59
2022/09/01 08:11:08;;;;;;;1.40;1.30;;;17.70;99.90;;;-141.84;54.77;20834.22;5052468;28;20312;-60
2022/09/01 08:13:38;;;;;;;2.25;1.40;;;17.60;99.90;;;-141.84;55.34;20836.25;5052072;28;20259;-61
2022/09/01 08:16:10;;;;;;;1.63;1.42;;;17.80;99.90;;;-141.84;54.51;20817.94;5052564;28;20232;-60
2022/09/01 08:18:48;;;;;;;2.35;1.58;;;17.80;99.90;;;-141.84;54.50;20868.78;5052655;28;20246;-60
2022/09/01 08:21:20;;;;;;;2.10;1.50;;;17.90;99.90;;;-141.84;54.36;20870.81;5052978;28;20268;-60
2022/09/01 08:23:52;;;;;;;1.77;1.50;;;18.00;99.90;;;-141.84;54.57;20878.94;5052713;28;20734;-60
2022/09/01 08:26:23;;;;;;;2.60;1.70;;;18.10;99.90;;;-141.84;53.60;20927.72;5052702;28;20707;-60
2022/09/01 08:28:54;;;;;;;3.42;1.95;;;18.20;99.90;;;-141.84;52.93;20950.09;5051709;28;20854;-60
2022/09/01 08:31:25;;;;;;;2.35;1.70;;;18.40;99.90;;;-141.84;53.11;20990.75;5051616;28;20312;-60
2022/09/01 08:33:58;;;;;;;2.13;1.80;;;18.40;99.90;;;-141.84;54.15;20838.28;5051529;28;20227;-60
2022/09/01 08:36:26;;;;;;;2.25;1.60;;;18.20;99.90;;;-141.84;54.69;20836.25;5051526;28;20197;-60
2022/09/01 08:38:56;;;;;;;5.47;1.80;;;18.10;99.90;;;-141.84;55.00;20836.25;5051299;28;20268;-60
2022/09/01 08:41:40;;;;;;;3.60;1.92;;;18.10;99.90;;;-141.84;54.71;20846.41;5051220;28;20735;-60
2022/09/01 08:44:31;;;;;;;4.65;1.90;;;18.00;99.90;;;-141.84;55.09;20838.28;5051111;28;20229;-61
2022/09/01 08:47:05;;;;;;;1.85;1.75;;;17.90;99.90;;;-141.84;55.40;20809.81;5050679;28;20582;-59
2022/09/01 08:49:38;;;;;;;2.22;2.03;;;17.90;99.90;;;-141.84;55.50;20805.75;5051281;28;20225;-60
2022/09/01 08:52:23;;;;;;;2.13;1.92;;;17.90;99.90;;;-141.84;55.66;20815.91;5051177;28;20247;-60
2022/09/01 08:55:01;;;;;;;3.28;1.80;;;18.00;99.90;;;-141.84;55.85;20809.81;5051208;28;20259;-60
2022/09/01 08:57:35;;;;;;;1.85;1.60;;;18.00;99.90;;;-141.84;55.62;20785.44;5051430;28;20177;-59
2022/09/01 09:00:07;;;;;;;1.80;1.50;;;17.90;99.90;;;-141.84;56.57;20779.31;5051010;28;20210;-61
2022/09/01 09:02:50;;;;;;;2.95;1.80;;;17.80;99.90;;;-141.84;56.70;20740.69;5050641;28;20221;-62
2022/09/01 09:05:32;;;;;;;2.65;1.85;;;17.80;99.90;;;-141.84;56.83;20744.78;5050975;28;20227;-61
2022/09/01 09:08:55;;;;;;;1.60;1.50;;;17.70;99.90;;;-141.84;56.30;20807.78;5050794;28;20316;-61
2022/09/01 09:11:58;;;;;;;3.40;1.92;;;17.90;99.90;;;-141.84;54.91;20830.16;5050796;28;20229;-61
2022/09/01 09:14:50;;;;;;;2.63;1.80;;;18.10;99.90;;;-141.84;54.19;20907.41;5051190;28;20278;-60
2022/09/01 09:17:27;;;;;;;3.85;1.80;;;18.30;99.90;;;-141.84;53.42;20933.81;5050999;28;20308;-62
2022/09/01 09:19:55;;;;;;;2.60;1.80;;;18.50;99.90;;;-141.84;52.73;20984.66;5051096;28;20225;-61
2022/09/01 09:22:23;;;;;;;3.13;1.80;;;18.80;99.90;;;-141.84;52.40;21027.34;5053390;28;20341;-61
2022/09/01 09:24:59;;;;;;;2.33;1.60;;;19.00;99.90;;;-141.84;52.41;21090.38;5054908;28;20237;-61
2022/09/01 09:27:32;;;;;;;2.10;1.90;;;19.10;99.90;;;-141.84;52.23;21049.72;5055124;28;20204;-62
2022/09/01 09:30:06;;;;;;;3.83;1.90;;;19.30;99.90;;;-141.84;52.06;21131.03;5054980;28;20852;-62
2022/09/01 09:32:50;;;;;;;3.22;2.17;;;19.40;99.90;;;-141.84;51.02;21155.44;5054690;28;20229;-62
2022/09/01 09:35:41;;;;;;;2.70;1.95;;;19.50;99.90;;;-141.84;50.61;21198.13;5054502;28;20693;-62
2022/09/01 09:38:27;;;;;;;2.33;1.85;;;19.70;99.90;;;-141.84;50.38;21167.63;5054460;28;20788;-62
2022/09/01 09:41:02;;;;;;;2.22;1.63;;;19.80;99.90;;;-141.84;50.58;21224.56;5054690;28;20677;-62
2022/09/01 09:43:58;;;;;;;3.63;1.40;;;19.80;99.90;;;-141.84;49.04;21224.56;5054294;28;20740;-60
2022/09/01 09:46:36;;;;;;;2.40;1.42;;;19.90;99.90;;;-141.84;47.81;21271.31;5054356;28;20689;-61
2022/09/01 09:49:19;;;;;;;2.85;1.40;;;20.00;99.90;;;-141.84;47.23;21269.28;5054781;28;20221;-62
2022/09/01 09:52:17;;;;;;;1.98;1.20;;;20.10;99.90;;;-141.84;46.79;21330.28;5054444;28;20672;-60
2022/09/01 09:55:05;;;;;;;2.47;1.45;;;20.20;99.90;;;-141.84;46.50;21332.31;5054338;28;20747;-62
2022/09/01 09:57:41;;;;;;;3.17;1.20;;;20.30;99.90;;;-141.84;46.15;21344.50;5054399;28;20276;-62
2022/09/01 10:00:21;;;;;;;2.13;1.20;;;20.30;99.90;;;-141.84;45.71;21350.59;5054778;28;20187;-62
2022/09/01 10:03:01;;;;;;;1.85;1.40;;;20.40;99.90;;;-141.84;46.30;21346.53;5054158;28;20304;-62
2022/09/01 10:05:41;;;;;;;1.30;1.20;;;20.40;99.90;;;-141.84;46.52;21356.69;5054055;28;20316;-61
2022/09/01 10:08:15;;;;;;;1.45;1.15;;;20.40;99.90;;;-141.84;46.50;21354.66;5054115;28;20229;-63
2022/09/01 10:10:49;;;;;;;1.30;1.20;;;20.40;99.90;;;-141.84;46.25;21427.88;5053996;28;20312;-61
2022/09/01 10:13:29;;;;;;;4.13;1.25;;;20.60;99.90;;;-141.84;45.75;21411.59;5053968;28;20298;-61
2022/09/01 10:16:05;;;;;;;2.10;1.60;;;20.60;99.90;;;-141.84;46.31;21407.53;5054241;28;20229;-62
2022/09/01 10:18:43;;;;;;;1.30;1.20;;;20.60;99.90;;;-141.84;46.03;21423.81;5053975;28;20809;-61
2022/09/01 10:21:17;;;;;;;3.00;1.48;;;20.70;99.90;;;-141.84;46.51;21383.13;5054626;28;20555;-61
2022/09/01 10:23:45;;;;;;;2.03;1.20;;;20.60;99.90;;;-141.84;46.07;21427.88;5053682;28;20315;-62
2022/09/01 10:26:20;;;;;;;1.95;1.33;;;20.70;99.90;;;-141.84;45.31;21444.13;5053890;28;20260;-62
2022/09/01 10:28:58;;;;;;;4.32;1.30;;;20.80;99.90;;;-141.84;45.24;21486.81;5053724;28;20228;-62
2022/09/01 10:31:30;;;;;;;1.70;1.30;;;20.90;99.90;;;-141.84;44.86;21488.88;5053934;28;20217;-62
2022/09/01 10:34:04;;;;;;;2.63;1.17;;;20.90;99.90;;;-141.84;43.63;21539.69;5053722;28;20224;-61
2022/09/01 10:36:35;;;;;;;1.27;1.17;;;21.00;99.90;;;-141.84;43.68;21531.56;5053867;28;20625;-61